Time;durP1;ratioP1;P1;durP2;ratioP2;P2;SDS_P1;SDS_P2;PMS_P1;PMS_P2;Temp;Humidity;BMP_temperature;BMP_pressure;BME280_temperature;BME280_humidity;BME280_pressure;Samples;Min_cycle;Max_cycle;Signal;HPM_P1;HPM_P2
2023/04/06 00:00:16;;;;;;;16.13;11.90;;;0.10;99.90;;;;;;5053432;28;20676;-79
2023/04/06 00:02:43;;;;;;;16.57;11.70;;;-0.10;99.90;;;;;;5055178;28;20254;-79
2023/04/06 00:05:10;;;;;;;21.87;12.43;;;-0.30;99.90;;;;;;5038263;28;20200;-80
2023/04/06 00:07:37;;;;;;;17.73;12.33;;;-0.40;99.90;;;;;;5037401;28;20235;-80
2023/04/06 00:10:04;;;;;;;19.07;12.30;;;-0.40;99.90;;;;;;5037469;28;20291;-78
2023/04/06 00:12:31;;;;;;;17.53;12.60;;;-0.30;99.90;;;;;;5047498;28;20234;-78
2023/04/06 00:14:58;;;;;;;17.97;12.77;;;-0.30;99.90;;;;;;5055696;28;20233;-79
2023/04/06 00:17:27;;;;;;;24.30;13.87;;;-0.30;99.90;;;;;;5037460;28;20204;-80
2023/04/06 00:19:53;;;;;;;17.83;12.23;;;-0.40;99.90;;;;;;5038108;28;20252;-80
2023/04/06 00:22:20;;;;;;;16.97;12.60;;;-0.30;99.90;;;;;;5037642;28;20235;-79
2023/04/06 00:24:47;;;;;;;19.70;12.93;;;-0.50;99.90;;;;;;5038074;28;20314;-80
2023/04/06 00:27:14;;;;;;;20.10;13.83;;;-0.50;99.90;;;;;;5037761;28;20290;-77
2023/04/06 00:29:41;;;;;;;16.37;11.90;;;-0.50;99.90;;;;;;5057293;28;20638;-78
2023/04/06 00:32:08;;;;;;;18.47;13.03;;;-0.40;99.90;;;;;;5056721;28;20258;-80
2023/04/06 00:34:36;;;;;;;18.73;12.87;;;-0.40;99.90;;;;;;5041897;28;20246;-79
2023/04/06 00:37:03;;;;;;;18.43;13.13;;;-0.50;99.90;;;;;;5053423;28;20223;-80
2023/04/06 00:39:30;;;;;;;20.57;13.07;;;-0.50;99.90;;;;;;5045096;28;20619;-79
2023/04/06 00:41:57;;;;;;;18.03;12.67;;;-0.60;99.90;;;;;;5037283;28;20265;-78
2023/04/06 00:44:24;;;;;;;17.83;12.13;;;-0.50;99.90;;;;;;5037320;28;20223;-79
2023/04/06 00:46:51;;;;;;;20.30;13.60;;;-0.60;99.90;;;;;;5037163;28;20206;-77
2023/04/06 00:49:18;;;;;;;19.60;13.63;;;-0.70;99.90;;;;;;5042142;28;20195;-80
2023/04/06 00:51:47;;;;;;;19.87;13.10;;;-0.80;99.90;;;;;;5037138;28;20319;-78
2023/04/06 00:54:14;;;;;;;18.83;12.33;;;-0.70;99.90;;;;;;5036593;28;20255;-79
2023/04/06 00:56:43;;;;;;;18.67;12.83;;;-0.90;99.90;;;;;;5037482;28;20243;-80
2023/04/06 00:59:11;;;;;;;19.73;13.67;;;-0.90;99.90;;;;;;5043960;28;20239;-78
2023/04/06 01:01:38;;;;;;;19.70;13.07;;;-0.90;99.90;;;;;;5035883;28;20227;-78
2023/04/06 01:04:05;;;;;;;19.77;13.17;;;-0.70;99.90;;;;;;5036728;28;20223;-80
2023/04/06 01:06:32;;;;;;;21.50;14.27;;;-0.60;99.90;;;;;;5051906;28;20712;-78
2023/04/06 01:09:00;;;;;;;20.10;13.60;;;-0.40;99.90;;;;;;5048407;28;20704;-77
2023/04/06 01:11:27;;;;;;;19.27;14.07;;;-0.40;99.90;;;;;;5041106;28;20289;-78
2023/04/06 01:13:54;;;;;;;18.60;13.20;;;-0.40;99.90;;;;;;5036469;28;20262;-79
2023/04/06 01:16:21;;;;;;;19.00;12.87;;;-0.60;99.90;;;;;;5037150;28;20200;-78
2023/04/06 01:18:48;;;;;;;20.07;13.27;;;-0.60;99.90;;;;;;5035662;28;20287;-79
2023/04/06 01:21:16;;;;;;;17.20;11.83;;;-0.60;99.90;;;;;;5035908;28;20231;-80
2023/04/06 01:23:46;;;;;;;19.20;12.97;;;-0.60;99.90;;;;;;5035914;28;20228;-78
2023/04/06 01:26:13;;;;;;;18.77;12.27;;;-0.90;99.90;;;;;;5035913;28;20203;-78
2023/04/06 01:28:40;;;;;;;17.43;12.17;;;-1.10;99.90;;;;;;5036220;28;20235;-79
2023/04/06 01:31:08;;;;;;;17.60;11.50;;;-1.20;99.90;;;;;;5034992;28;20223;-77
2023/04/06 01:33:35;;;;;;;15.77;10.10;;;-1.20;99.90;;;;;;5035597;28;20220;-77
2023/04/06 01:36:02;;;;;;;17.37;11.60;;;-1.20;99.90;;;;;;5035854;28;20246;-78
2023/04/06 01:38:29;;;;;;;16.10;11.33;;;-1.00;99.90;;;;;;5035139;28;20314;-78
2023/04/06 01:40:57;;;;;;;17.87;11.83;;;-0.70;99.90;;;;;;5035325;28;20279;-80
2023/04/06 01:43:24;;;;;;;16.50;11.60;;;-0.80;99.90;;;;;;5034950;28;20289;-79
2023/04/06 01:45:51;;;;;;;17.63;11.70;;;-1.00;99.90;;;;;;5034556;28;20208;-80
2023/04/06 01:48:18;;;;;;;18.13;11.37;;;-1.00;99.90;;;;;;5035338;28;20235;-78
2023/04/06 01:50:45;;;;;;;17.33;12.20;;;-0.80;99.90;;;;;;5034281;28;20306;-78
2023/04/06 01:53:12;;;;;;;20.67;12.90;;;-0.70;99.90;;;;;;5035081;28;20301;-77
2023/04/06 01:55:38;;;;;;;19.10;13.23;;;-0.90;99.90;;;;;;5047714;28;20195;-78
2023/04/06 01:58:07;;;;;;;19.27;12.93;;;-1.00;99.90;;;;;;5036287;28;20246;-78
2023/04/06 02:00:34;;;;;;;21.40;14.33;;;-1.10;99.90;;;;;;5049856;28;20235;-78
2023/04/06 02:03:01;;;;;;;21.87;14.30;;;-1.10;99.90;;;;;;5054015;28;20255;-77
2023/04/06 02:05:29;;;;;;;19.37;13.37;;;-1.00;99.90;;;;;;5047233;28;20242;-79
2023/04/06 02:07:56;;;;;;;21.10;14.33;;;-1.10;99.90;;;;;;5035324;28;20302;-79
2023/04/06 02:10:23;;;;;;;22.23;14.27;;;-1.10;99.90;;;;;;5053172;28;20277;-78
2023/04/06 02:12:50;;;;;;;19.80;13.30;;;-1.10;99.90;;;;;;5035104;28;20642;-78
2023/04/06 02:15:19;;;;;;;20.30;14.00;;;-1.20;99.90;;;;;;5033898;28;20278;-78
2023/04/06 02:17:45;;;;;;;18.77;13.40;;;-1.10;99.90;;;;;;5032776;28;20204;-78
2023/04/06 02:20:13;;;;;;;17.33;12.07;;;-1.10;99.90;;;;;;5032954;28;20624;-79
2023/04/06 02:22:40;;;;;;;20.23;13.33;;;-1.00;99.90;;;;;;5032941;28;20254;-77
2023/04/06 02:25:08;;;;;;;18.93;12.93;;;-1.00;99.90;;;;;;5046107;28;20262;-77
2023/04/06 02:27:35;;;;;;;20.67;13.33;;;-1.20;99.90;;;;;;5032011;28;20203;-76
2023/04/06 02:30:02;;;;;;;19.77;13.87;;;-1.30;99.90;;;;;;5031942;28;20215;-78
2023/04/06 02:32:30;;;;;;;18.03;13.23;;;-1.20;99.90;;;;;;5031540;28;20305;-78
2023/04/06 02:34:57;;;;;;;19.93;13.97;;;-1.30;99.90;;;;;;5033171;28;20212;-79
2023/04/06 02:37:24;;;;;;;18.90;13.20;;;-1.40;99.90;;;;;;5049241;28;20235;-79
2023/04/06 02:39:51;;;;;;;19.93;13.10;;;-1.50;99.90;;;;;;5037979;28;20223;-79
2023/04/06 02:42:18;;;;;;;19.50;13.53;;;-1.60;99.90;;;;;;5035861;28;20239;-80
2023/04/06 02:44:45;;;;;;;18.00;13.10;;;-1.50;99.90;;;;;;5052917;28;20661;-78
2023/04/06 02:47:12;;;;;;;17.80;13.23;;;-1.70;99.90;;;;;;5055176;28;20226;-78
2023/04/06 02:49:40;;;;;;;19.23;12.70;;;-1.70;99.90;;;;;;5055929;28;20564;-79
2023/04/06 02:52:07;;;;;;;18.57;12.70;;;-1.70;99.90;;;;;;5051461;28;20215;-80
2023/04/06 02:54:34;;;;;;;19.77;13.03;;;-1.80;99.90;;;;;;5035741;28;20250;-77
2023/04/06 02:57:01;;;;;;;18.20;12.60;;;-1.80;99.90;;;;;;5034756;28;20239;-79
2023/04/06 02:59:28;;;;;;;18.37;12.37;;;-1.80;99.90;;;;;;5035534;28;20203;-79
2023/04/06 03:01:55;;;;;;;18.77;12.27;;;-1.80;99.90;;;;;;5035270;28;20234;-79
2023/04/06 03:04:25;;;;;;;19.07;12.60;;;-1.80;99.90;;;;;;5053716;28;20227;-79
2023/04/06 03:06:54;;;;;;;19.37;12.33;;;-1.80;99.90;;;;;;5056697;28;20199;-79
2023/04/06 03:09:21;;;;;;;20.70;12.90;;;-1.70;99.90;;;;;;5058461;28;20238;-79
2023/04/06 03:11:48;;;;;;;19.77;12.53;;;-1.80;99.90;;;;;;5058629;28;20775;-79
2023/04/06 03:14:17;;;;;;;19.43;12.53;;;-1.90;99.90;;;;;;5058870;28;20254;-77
2023/04/06 03:16:44;;;;;;;20.90;13.50;;;-1.80;99.90;;;;;;5057816;28;20214;-78
2023/04/06 03:19:11;;;;;;;18.73;12.83;;;-1.50;99.90;;;;;;5054815;28;20596;-79
2023/04/06 03:21:38;;;;;;;18.47;12.87;;;-1.30;99.90;;;;;;5038312;28;20623;-79
2023/04/06 03:24:07;;;;;;;18.40;12.73;;;-1.20;99.90;;;;;;5058747;28;20754;-78
2023/04/06 03:26:34;;;;;;;17.27;12.53;;;-1.20;99.90;;;;;;5054305;28;20234;-80
2023/04/06 03:29:01;;;;;;;18.67;11.60;;;-1.00;99.90;;;;;;5050493;28;20304;-80
2023/04/06 03:31:27;;;;;;;18.90;11.93;;;-1.20;99.90;;;;;;5058711;28;20984;-78
2023/04/06 03:33:54;;;;;;;16.83;10.77;;;-1.10;99.90;;;;;;5058143;28;20258;-79
2023/04/06 03:36:21;;;;;;;16.03;10.97;;;-1.20;99.90;;;;;;5058590;28;20230;-77
2023/04/06 03:38:48;;;;;;;24.20;20.30;;;-1.50;99.90;;;;;;5057884;28;20230;-78
2023/04/06 03:41:16;;;;;;;19.07;12.63;;;-1.70;99.90;;;;;;5058019;28;20230;-79
2023/04/06 03:43:43;;;;;;;17.23;10.07;;;-1.90;99.90;;;;;;5058806;28;20223;-79
2023/04/06 03:46:10;;;;;;;16.30;10.80;;;-2.00;99.90;;;;;;5058446;28;20650;-77
2023/04/06 03:48:37;;;;;;;15.20;9.93;;;-1.80;99.90;;;;;;5058395;28;20234;-79
2023/04/06 03:51:04;;;;;;;16.80;10.00;;;-1.70;99.90;;;;;;5058205;28;20254;-79
2023/04/06 03:53:31;;;;;;;18.50;10.57;;;-1.90;99.90;;;;;;5057578;28;20219;-79
2023/04/06 03:55:58;;;;;;;17.40;10.97;;;-1.80;99.90;;;;;;5058478;28;20234;-79
2023/04/06 03:58:26;;;;;;;15.23;9.73;;;-1.70;99.90;;;;;;5059273;28;20289;-77
2023/04/06 04:00:53;;;;;;;13.73;9.20;;;-1.80;99.90;;;;;;5059225;28;20285;-78
2023/04/06 04:03:21;;;;;;;14.63;9.57;;;-1.80;99.90;;;;;;5056542;28;20281;-78
2023/04/06 04:05:48;;;;;;;14.73;9.20;;;-1.60;99.90;;;;;;5049573;28;20411;-78
2023/04/06 04:08:15;;;;;;;16.50;10.03;;;-1.50;99.90;;;;;;5036545;28;20238;-79
2023/04/06 04:10:42;;;;;;;14.97;8.90;;;-1.40;99.90;;;;;;5043828;28;20234;-79
2023/04/06 04:13:09;;;;;;;14.27;8.90;;;-1.40;99.90;;;;;;5037069;28;20711;-79
2023/04/06 04:15:37;;;;;;;14.57;8.97;;;-1.40;99.90;;;;;;5042767;28;20231;-79
2023/04/06 04:18:04;;;;;;;15.60;8.63;;;-1.30;99.90;;;;;;5047761;28;20638;-78
2023/04/06 04:20:31;;;;;;;18.70;8.70;;;-1.50;99.90;;;;;;5056429;28;20199;-77
2023/04/06 04:22:58;;;;;;;15.97;8.23;;;-1.60;99.90;;;;;;5055799;28;20230;-78
2023/04/06 04:25:25;;;;;;;15.20;8.30;;;-1.60;99.90;;;;;;5046225;28;20673;-79
2023/04/06 04:27:52;;;;;;;17.03;7.83;;;-1.60;99.90;;;;;;5036293;28;20238;-78
2023/04/06 04:30:19;;;;;;;14.77;8.23;;;-1.40;99.90;;;;;;5036533;28;20219;-79
2023/04/06 04:32:47;;;;;;;16.87;7.67;;;-1.30;99.90;;;;;;5035674;28;20318;-79
2023/04/06 04:35:14;;;;;;;13.87;7.90;;;-1.40;99.90;;;;;;5036579;28;20250;-79
2023/04/06 04:37:42;;;;;;;14.67;8.50;;;-1.50;99.90;;;;;;5035584;28;20207;-78
2023/04/06 04:40:10;;;;;;;12.33;7.57;;;-1.30;99.90;;;;;;5036042;28;20273;-79
2023/04/06 04:42:37;;;;;;;15.20;8.30;;;-1.20;99.90;;;;;;5035822;28;20199;-80
2023/04/06 04:45:04;;;;;;;14.30;8.20;;;-1.20;99.90;;;;;;5035469;28;20230;-79
2023/04/06 04:47:31;;;;;;;14.80;8.30;;;-1.20;99.90;;;;;;5033821;28;20215;-79
2023/04/06 04:49:59;;;;;;;13.80;7.87;;;-1.30;99.90;;;;;;5034269;28;20200;-79
2023/04/06 04:52:26;;;;;;;16.97;7.90;;;-1.40;99.90;;;;;;5035553;28;20259;-78
2023/04/06 04:54:53;;;;;;;11.70;7.50;;;-1.30;99.90;;;;;;5035171;28;20246;-79
2023/04/06 04:57:20;;;;;;;12.67;7.53;;;-1.50;99.90;;;;;;5039278;28;20238;-78
2023/04/06 04:59:47;;;;;;;13.03;8.30;;;-1.50;99.90;;;;;;5043073;28;20815;-78
2023/04/06 05:02:14;;;;;;;14.23;7.87;;;-1.30;99.90;;;;;;5042715;28;20200;-79
2023/04/06 05:04:41;;;;;;;16.37;8.87;;;-1.00;99.90;;;;;;5034095;28;20223;-79
2023/04/06 05:07:10;;;;;;;12.67;7.47;;;-0.70;99.90;;;;;;5034266;28;20203;-78
2023/04/06 05:09:37;;;;;;;12.93;7.10;;;-0.40;99.90;;;;;;5049686;28;20623;-78
2023/04/06 05:12:04;;;;;;;12.27;7.23;;;0.10;99.90;;;;;;5050592;28;20219;-80
2023/04/06 05:14:31;;;;;;;13.47;6.83;;;0.60;99.90;;;;;;5049155;28;20247;-78
2023/04/06 05:16:58;;;;;;;10.03;6.90;;;0.70;99.90;;;;;;5054718;28;20580;-78
2023/04/06 05:19:25;;;;;;;10.53;6.63;;;0.30;99.90;;;;;;5054843;28;20250;-79
2023/04/06 05:21:52;;;;;;;11.33;7.10;;;0.40;99.90;;;;;;5045700;28;20211;-80
2023/04/06 05:24:20;;;;;;;9.03;6.53;;;0.30;99.90;;;;;;5034961;28;20310;-79
2023/04/06 05:26:47;;;;;;;10.40;5.87;;;0.50;99.90;;;;;;5035181;28;20583;-79
2023/04/06 05:29:14;;;;;;;11.07;6.33;;;1.00;99.90;;;;;;5034161;28;20215;-80
2023/04/06 05:31:41;;;;;;;11.00;6.90;;;1.20;99.90;;;;;;5034352;28;20254;-79
2023/04/06 05:34:09;;;;;;;14.63;6.63;;;1.10;99.90;;;;;;5034709;28;20267;-78
2023/04/06 05:36:36;;;;;;;12.03;6.33;;;1.60;99.90;;;;;;5034000;28;20278;-78
2023/04/06 05:39:03;;;;;;;14.20;7.00;;;1.30;99.90;;;;;;5034731;28;20227;-79
2023/04/06 05:41:31;;;;;;;14.27;7.23;;;0.60;99.90;;;;;;5047862;28;20345;-79
2023/04/06 05:43:58;;;;;;;13.60;7.00;;;0.50;99.90;;;;;;5036681;28;20282;-78
2023/04/06 05:46:25;;;;;;;12.13;6.77;;;0.40;99.90;;;;;;5033900;28;20702;-78
2023/04/06 05:48:52;;;;;;;13.23;6.87;;;0.70;99.90;;;;;;5034704;28;20199;-78
2023/04/06 05:51:18;;;;;;;16.07;7.10;;;0.80;99.90;;;;;;5038235;28;20308;-78
2023/04/06 05:53:45;;;;;;;12.90;6.80;;;1.00;99.90;;;;;;5038528;28;20306;-78
2023/04/06 05:56:12;;;;;;;11.50;6.60;;;1.20;99.90;;;;;;5034159;28;20238;-78
2023/04/06 05:58:40;;;;;;;10.23;6.20;;;1.00;99.90;;;;;;5034166;28;20697;-78
2023/04/06 06:01:08;;;;;;;13.27;7.40;;;0.80;99.90;;;;;;5034584;28;20524;-78
2023/04/06 06:03:35;;;;;;;12.23;7.00;;;0.80;99.90;;;;;;5034696;28;20318;-78
2023/04/06 06:06:03;;;;;;;15.03;7.67;;;0.80;99.90;;;;;;5034426;28;20242;-79
2023/04/06 06:08:30;;;;;;;13.33;7.83;;;1.50;99.90;;;;;;5034098;28;20287;-79
2023/04/06 06:10:57;;;;;;;15.23;8.20;;;2.20;99.90;;;;;;5033492;28;20330;-79
2023/04/06 06:13:24;;;;;;;12.57;7.73;;;2.20;99.90;;;;;;5033404;28;20281;-78
2023/04/06 06:15:52;;;;;;;15.73;7.97;;;2.40;99.90;;;;;;5032536;28;20211;-79
2023/04/06 06:18:19;;;;;;;28.27;8.23;;;2.70;99.90;;;;;;5032017;28;20231;-78
2023/04/06 06:20:46;;;;;;;13.23;7.27;;;3.10;99.90;;;;;;5032130;28;20257;-78
2023/04/06 06:23:13;;;;;;;15.13;6.97;;;3.50;99.90;;;;;;5032589;28;20258;-79
2023/04/06 06:25:40;;;;;;;12.93;7.67;;;3.80;99.90;;;;;;5039275;28;20239;-79
2023/04/06 06:28:07;;;;;;;11.67;7.07;;;4.30;99.90;;;;;;5054349;28;20704;-78
2023/04/06 06:30:34;;;;;;;13.77;7.70;;;4.70;99.90;;;;;;5054076;28;20218;-78
2023/04/06 06:33:03;;;;;;;14.77;8.10;;;4.70;99.90;;;;;;5053820;28;20239;-78
2023/04/06 06:35:30;;;;;;;14.33;7.60;;;4.70;99.90;;;;;;5054283;28;20214;-78
2023/04/06 06:37:56;;;;;;;17.47;7.43;;;4.70;99.90;;;;;;5054819;28;20202;-79
2023/04/06 06:40:25;;;;;;;19.20;8.60;;;4.30;99.90;;;;;;5055035;28;20249;-79
2023/04/06 06:42:52;;;;;;;15.27;8.03;;;4.30;99.90;;;;;;5050508;28;20707;-79
2023/04/06 06:45:20;;;;;;;16.57;7.63;;;4.00;99.90;;;;;;5038991;28;20206;-79
2023/04/06 06:47:47;;;;;;;14.77;7.57;;;3.80;99.90;;;;;;5045492;28;20266;-79
2023/04/06 06:50:15;;;;;;;13.57;7.77;;;3.70;99.90;;;;;;5039110;28;20694;-78
2023/04/06 06:52:42;;;;;;;12.23;7.60;;;3.90;99.90;;;;;;5037618;28;20251;-79
2023/04/06 06:55:10;;;;;;;17.93;8.37;;;4.00;99.90;;;;;;5037935;28;20258;-79
2023/04/06 06:57:38;;;;;;;14.83;8.27;;;4.00;99.90;;;;;;5037949;28;20238;-79
2023/04/06 07:00:07;;;;;;;14.33;7.80;;;4.10;99.90;;;;;;5038055;28;20231;-79
2023/04/06 07:02:36;;;;;;;13.20;7.87;;;4.90;99.90;;;;;;5037633;28;20212;-79
2023/04/06 07:05:03;;;;;;;12.03;7.57;;;5.00;99.90;;;;;;5037645;28;20685;-79
2023/04/06 07:07:33;;;;;;;16.67;8.63;;;5.10;99.90;;;;;;5037255;28;20211;-79
2023/04/06 07:10:00;;;;;;;13.10;7.93;;;6.10;99.90;;;;;;5037358;28;20199;-79
2023/04/06 07:12:27;;;;;;;12.37;7.43;;;5.40;99.90;;;;;;5037811;28;20763;-79
2023/04/06 07:14:55;;;;;;;12.80;7.57;;;5.70;99.90;;;;;;5037693;28;20238;-79
2023/04/06 07:17:21;;;;;;;13.33;8.30;;;6.10;99.90;;;;;;5037050;28;20207;-79
2023/04/06 07:19:48;;;;;;;13.57;7.60;;;5.70;99.90;;;;;;5037673;28;20238;-79
2023/04/06 07:22:15;;;;;;;12.67;7.57;;;6.20;99.90;;;;;;5037759;28;20235;-79
2023/04/06 07:24:43;;;;;;;10.50;7.30;;;6.10;99.90;;;;;;5037858;28;20251;-79
2023/04/06 07:27:11;;;;;;;10.90;7.10;;;6.50;99.90;;;;;;5037711;28;20606;-79
2023/04/06 07:29:37;;;;;;;10.93;6.60;;;7.30;99.90;;;;;;5036734;28;20262;-79
2023/04/06 07:32:05;;;;;;;8.87;6.47;;;7.40;99.90;;;;;;5037217;28;20658;-80
2023/04/06 07:34:31;;;;;;;10.53;6.57;;;7.50;1.00;;;;;;5037380;28;20274;-79
2023/04/06 07:36:58;;;;;;;11.10;6.23;;;7.70;1.00;;;;;;5036561;28;20243;-79
2023/04/06 07:39:27;;;;;;;10.10;6.20;;;7.90;1.00;;;;;;5037184;28;20261;-79
2023/04/06 07:41:55;;;;;;;10.30;6.60;;;9.10;1.00;;;;;;5036880;28;20219;-79
2023/04/06 07:44:22;;;;;;;8.83;6.37;;;8.70;1.00;;;;;;5036870;28;20247;-80
2023/04/06 07:46:49;;;;;;;9.70;5.90;;;8.90;1.00;;;;;;5035809;28;20290;-80
2023/04/06 07:49:16;;;;;;;10.17;6.47;;;8.80;99.90;;;;;;5036149;28;20200;-80
2023/04/06 07:51:43;;;;;;;9.47;6.07;;;8.60;86.40;;;;;;5036824;28;20225;-80
2023/04/06 07:54:10;;;;;;;9.10;6.20;;;8.80;1.00;;;;;;5036532;28;20274;-79
2023/04/06 07:56:36;;;;;;;10.40;6.43;;;9.50;92.30;;;;;;5036830;28;20270;-80
2023/04/06 07:59:05;;;;;;;7.97;6.37;;;9.40;1.00;;;;;;5037040;28;20243;-80
2023/04/06 08:01:31;;;;;;;9.73;6.77;;;10.00;1.00;;;;;;5036904;28;20651;-80
2023/04/06 08:04:01;;;;;;;8.60;6.37;;;9.80;1.00;;;;;;5045333;28;20642;-80
2023/04/06 08:06:27;;;;;;;8.67;6.20;;;9.60;1.00;;;;;;5036393;28;20261;-80
2023/04/06 08:08:55;;;;;;;8.67;6.23;;;9.80;1.00;;;;;;5043961;28;20649;-80
2023/04/06 08:11:22;;;;;;;9.07;5.90;;;9.40;99.90;;;;;;5037115;28;20235;-79
2023/04/06 08:13:49;;;;;;;10.10;7.10;;;9.40;99.90;;;;;;5037193;28;20311;-80
2023/04/06 08:16:17;;;;;;;10.57;6.20;;;9.30;99.90;;;;;;5037116;28;20239;-79
2023/04/06 08:18:44;;;;;;;8.87;6.43;;;9.40;28.80;;;;;;5036510;28;20246;-79
2023/04/06 08:21:11;;;;;;;11.07;7.13;;;9.40;1.00;;;;;;5036670;28;20696;-79
2023/04/06 08:23:38;;;;;;;8.07;5.90;;;9.80;1.00;;;;;;5036723;28;20701;-80
2023/04/06 08:26:05;;;;;;;9.17;6.43;;;9.90;1.00;;;;;;5036097;28;20638;-80
2023/04/06 08:28:32;;;;;;;10.20;6.67;;;9.60;1.00;;;;;;5036164;28;20247;-80
2023/04/06 08:30:59;;;;;;;11.03;6.30;;;10.20;1.00;;;;;;5035716;28;20222;-80
2023/04/06 08:33:27;;;;;;;8.67;6.17;;;10.10;1.00;;;;;;5035580;28;20669;-80
2023/04/06 08:35:54;;;;;;;9.23;6.10;;;10.10;1.00;;;;;;5035583;28;20275;-80
2023/04/06 08:38:21;;;;;;;10.47;7.00;;;10.00;1.00;;;;;;5034507;28;20265;-78
2023/04/06 08:40:49;;;;;;;9.63;6.23;;;9.90;99.90;;;;;;5034870;28;20246;-78
2023/04/06 08:43:21;;;;;;;9.13;6.10;;;10.30;99.90;;;;;;5035236;28;20227;-79
2023/04/06 08:45:48;;;;;;;9.00;6.00;;;11.00;99.90;;;;;;5037874;28;20203;-79
2023/04/06 08:48:16;;;;;;;10.67;6.27;;;10.80;99.90;;;;;;5043109;28;20243;-79
2023/04/06 08:50:45;;;;;;;10.50;6.10;;;10.80;99.90;;;;;;5043749;28;20586;-79
2023/04/06 08:53:12;;;;;;;9.03;6.13;;;11.30;99.90;;;;;;5037423;28;20266;-79
2023/04/06 08:55:40;;;;;;;9.47;6.27;;;11.40;99.90;;;;;;5037532;28;20218;-79
2023/04/06 08:58:09;;;;;;;9.13;6.60;;;11.60;76.30;;;;;;5045122;28;20233;-79
2023/04/06 09:00:38;;;;;;;7.83;6.20;;;11.50;1.00;;;;;;5037751;28;20678;-79
2023/04/06 09:03:07;;;;;;;8.97;6.43;;;11.30;1.00;;;;;;5043289;28;20253;-79
2023/04/06 09:05:34;;;;;;;11.53;6.40;;;11.10;1.00;;;;;;5036062;28;20210;-79
2023/04/06 09:08:02;;;;;;;9.40;6.13;;;11.00;1.00;;;;;;5047330;28;20658;-79
2023/04/06 09:10:30;;;;;;;8.53;5.70;;;11.40;1.00;;;;;;5052521;28;20230;-79
2023/04/06 09:13:05;;;;;;;10.53;5.97;;;11.70;1.00;;;;;;5039191;28;20287;-79
2023/04/06 09:15:32;;;;;;;8.47;5.50;;;11.40;1.00;;;;;;5035892;28;20649;-79
2023/04/06 09:17:59;;;;;;;7.43;5.27;;;12.10;1.00;;;;;;5035218;28;20243;-79
2023/04/06 09:20:28;;;;;;;10.03;5.63;;;12.30;1.00;;;;;;5035615;28;20213;-79
2023/04/06 09:22:55;;;;;;;10.47;5.97;;;12.10;1.00;;;;;;5035024;28;20718;-79
2023/04/06 09:25:26;;;;;;;9.77;6.67;;;13.30;1.00;;;;;;5036503;28;20245;-79
2023/04/06 09:28:00;;;;;;;10.50;6.37;;;13.20;1.00;;;;;;5036176;28;20211;-79
2023/04/06 09:30:27;;;;;;;9.63;5.83;;;13.30;1.00;;;;;;5035659;28;20242;-79
2023/04/06 09:32:55;;;;;;;8.10;5.93;;;13.10;99.90;;;;;;5034040;28;20236;-80
2023/04/06 09:35:23;;;;;;;9.20;5.80;;;13.90;1.00;;;;;;5040960;28;20601;-79
2023/04/06 09:37:52;;;;;;;9.63;6.33;;;12.70;99.90;;;;;;5033743;28;20243;-79
2023/04/06 09:40:21;;;;;;;8.13;6.23;;;13.50;99.90;;;;;;5034428;28;20230;-79
2023/04/06 09:42:51;;;;;;;7.87;6.13;;;13.20;99.90;;;;;;5034259;28;20728;-79
2023/04/06 09:45:18;;;;;;;7.40;5.77;;;13.90;99.90;;;;;;5033732;28;20214;-79
2023/04/06 09:47:46;;;;;;;8.17;5.10;;;13.70;99.90;;;;;;5032875;28;20274;-79
2023/04/06 09:50:16;;;;;;;9.10;5.73;;;13.60;99.90;;;;;;5032690;28;20216;-80
2023/04/06 09:52:49;;;;;;;9.67;6.13;;;14.10;99.90;;;;;;5033036;28;20270;-79
2023/04/06 09:55:21;;;;;;;9.50;5.57;;;13.20;1.00;;;;;;5033602;28;20213;-79
2023/04/06 09:57:54;;;;;;;9.50;5.73;;;13.80;20.80;;;;;;5042557;28;20234;-79
2023/04/06 10:00:23;;;;;;;8.50;5.93;;;13.50;1.00;;;;;;5047146;28;20250;-79
2023/04/06 10:02:54;;;;;;;10.07;6.00;;;13.80;1.00;;;;;;5040639;28;20222;-79
2023/04/06 10:05:26;;;;;;;9.50;5.70;;;13.90;1.00;;;;;;5041240;28;20191;-80
2023/04/06 10:07:56;;;;;;;9.80;5.80;;;13.40;1.00;;;;;;5040207;28;20230;-80
2023/04/06 10:10:23;;;;;;;7.97;5.43;;;13.40;1.00;;;;;;5045054;28;20210;-80
2023/04/06 10:12:52;;;;;;;8.27;6.00;;;13.30;1.00;;;;;;5046973;28;20640;-81
2023/04/06 10:15:19;;;;;;;9.35;5.60;;;14.50;1.00;;;;;;5040101;28;20200;-80
2023/04/06 10:17:46;;;;;;;7.68;5.43;;;14.20;1.00;;;;;;5053735;28;20226;-80
2023/04/06 10:20:20;;;;;;;8.77;5.90;;;14.20;1.00;;;;;;5050881;28;20650;-80
2023/04/06 10:22:56;;;;;;;9.82;6.20;;;14.00;1.00;;;;;;5051662;28;20194;-80
2023/04/06 10:25:33;;;;;;;8.45;5.68;;;14.30;1.00;;;;;;5044156;28;20245;-80
2023/04/06 10:28:02;;;;;;;9.90;5.72;;;14.60;1.00;;;;;;5051256;28;20230;-80
2023/04/06 10:30:29;;;;;;;7.65;6.00;;;14.60;1.00;;;;;;5061739;28;20214;-80
2023/04/06 10:32:56;;;;;;;8.10;5.90;;;14.50;1.00;;;;;;5049933;28;20599;-81
2023/04/06 10:35:25;;;;;;;11.32;6.97;;;14.70;1.00;;;;;;5048871;28;20267;-79
2023/04/06 10:37:53;;;;;;;12.32;6.70;;;14.10;1.00;;;;;;5043582;28;20227;-80
2023/04/06 10:40:25;;;;;;;10.60;6.85;;;13.70;1.00;;;;;;5044724;28;20219;-81
2023/04/06 10:42:53;;;;;;;9.75;6.60;;;14.30;1.00;;;;;;5045036;28;20223;-81
2023/04/06 10:45:23;;;;;;;11.55;7.25;;;14.40;1.00;;;;;;5042255;28;20227;-81
2023/04/06 10:47:50;;;;;;;8.10;5.82;;;14.40;1.00;;;;;;5048101;28;20210;-80
2023/04/06 10:50:17;;;;;;;10.00;6.45;;;14.70;1.00;;;;;;5045081;28;20211;-79
2023/04/06 10:52:46;;;;;;;10.60;6.77;;;14.10;1.00;;;;;;5054937;28;20629;-80
2023/04/06 10:55:14;;;;;;;8.52;5.80;;;14.60;1.00;;;;;;5062995;28;20291;-80
2023/04/06 10:57:41;;;;;;;9.32;6.30;;;15.50;1.00;;;;;;5049329;28;20195;-79
2023/04/06 11:00:09;;;;;;;9.65;6.55;;;14.90;1.00;;;;;;5063376;28;20206;-80
2023/04/06 11:02:38;;;;;;;10.73;7.22;;;14.60;1.00;;;;;;5051532;28;20203;-80
2023/04/06 11:05:06;;;;;;;9.13;6.70;;;15.10;1.00;;;;;;5055461;28;20282;-80
2023/04/06 11:07:33;;;;;;;10.05;7.00;;;15.00;1.00;;;;;;5043904;28;20559;-80
2023/04/06 11:10:00;;;;;;;10.98;7.18;;;15.00;99.90;;;;;;5045656;28;20277;-80
2023/04/06 11:12:30;;;;;;;11.02;7.22;;;14.80;99.90;;;;;;5064318;28;20210;-80
2023/04/06 11:15:04;;;;;;;9.68;6.57;;;15.00;99.90;;;;;;5063475;28;20249;-80
2023/04/06 11:17:31;;;;;;;11.10;7.22;;;14.50;99.90;;;;;;5042728;28;20302;-80
2023/04/06 11:20:00;;;;;;;9.95;6.95;;;14.50;99.90;;;;;;5048028;28;20222;-80
2023/04/06 11:22:27;;;;;;;11.35;7.10;;;14.90;99.90;;;;;;5053022;28;20814;-79
2023/04/06 11:24:54;;;;;;;11.38;7.38;;;14.90;99.90;;;;;;5042711;28;20235;-79
2023/04/06 11:27:21;;;;;;;11.15;7.47;;;14.90;99.90;;;;;;5050524;28;20211;-79
2023/04/06 11:29:49;;;;;;;11.75;7.63;;;14.90;99.90;;;;;;5042233;28;20215;-79
2023/04/06 11:32:23;;;;;;;11.82;7.53;;;15.00;99.90;;;;;;5042004;28;20204;-80
2023/04/06 11:34:50;;;;;;;13.30;8.13;;;14.50;99.90;;;;;;5042277;28;20234;-80
2023/04/06 11:37:21;;;;;;;12.40;8.43;;;14.50;99.90;;;;;;5041977;28;20244;-81
2023/04/06 11:39:50;;;;;;;12.00;8.75;;;14.40;99.00;;;;;;5041420;28;20204;-81
2023/04/06 11:42:23;;;;;;;11.77;7.70;;;14.80;99.90;;;;;;5056655;28;20644;-81
2023/04/06 11:44:52;;;;;;;10.65;8.20;;;14.70;67.90;;;;;;5059918;28;20659;-80
2023/04/06 11:47:21;;;;;;;11.55;7.90;;;15.30;99.90;;;;;;5050899;28;20691;-80
2023/04/06 11:49:51;;;;;;;11.18;7.22;;;15.50;99.90;;;;;;5040576;28;20655;-80
2023/04/06 11:52:21;;;;;;;12.07;8.05;;;15.40;57.10;;;;;;5053850;28;20203;-79
2023/04/06 11:54:49;;;;;;;11.38;8.10;;;14.80;1.00;;;;;;5040499;28;20682;-80
2023/04/06 11:57:18;;;;;;;9.63;7.10;;;14.90;1.00;;;;;;5040674;28;20204;-80
2023/04/06 11:59:45;;;;;;;9.77;6.72;;;15.00;1.00;;;;;;5051603;28;20264;-80
2023/04/06 12:02:12;;;;;;;11.10;7.15;;;15.60;1.00;;;;;;5063222;28;20195;-80
2023/04/06 12:04:39;;;;;;;10.10;7.43;;;15.50;1.00;;;;;;5063067;28;20658;-80
2023/04/06 12:07:06;;;;;;;12.85;8.15;;;15.70;1.00;;;;;;5044371;28;20199;-80
2023/04/06 12:09:36;;;;;;;10.77;7.50;;;15.00;1.00;;;;;;5042972;28;20206;-80
2023/04/06 12:12:03;;;;;;;12.27;8.57;;;14.90;1.00;;;;;;5050281;28;20199;-82
2023/04/06 12:14:31;;;;;;;12.70;7.90;;;14.90;1.00;;;;;;5048903;28;20250;-80
2023/04/06 12:16:58;;;;;;;11.07;7.90;;;14.40;1.00;;;;;;5061031;28;20207;-80
2023/04/06 12:19:25;;;;;;;10.82;7.45;;;15.10;1.00;;;;;;5060670;28;20217;-80
2023/04/06 12:21:53;;;;;;;10.82;8.00;;;16.10;1.00;;;;;;5060648;28;20242;-80
2023/04/06 12:24:20;;;;;;;13.48;8.07;;;16.00;1.00;;;;;;5058545;28;20215;-82
2023/04/06 12:26:48;;;;;;;13.15;8.70;;;16.00;1.00;;;;;;5057787;28;20729;-83
2023/04/06 12:29:15;;;;;;;10.70;7.68;;;15.80;1.00;;;;;;5056539;28;20238;-83
2023/04/06 12:31:44;;;;;;;10.82;8.27;;;15.70;1.00;;;;;;5057625;28;20183;-82
2023/04/06 12:34:11;;;;;;;11.65;7.55;;;15.30;1.00;;;;;;5041678;28;20330;-81
2023/04/06 12:36:39;;;;;;;10.55;7.43;;;15.40;1.00;;;;;;5037484;28;20628;-83
2023/04/06 12:39:06;;;;;;;13.93;8.00;;;14.70;1.00;;;;;;5037639;28;20199;-82
2023/04/06 12:41:34;;;;;;;11.93;7.68;;;15.80;1.00;;;;;;5037780;28;20234;-81